Time;durP1;ratioP1;P1;durP2;ratioP2;P2;SDS_P1;SDS_P2;PMS_P1;PMS_P2;Temp;Humidity;BMP_temperature;BMP_pressure;BME280_temperature;BME280_humidity;BME280_pressure;Samples;Min_cycle;Max_cycle;Signal;HPM_P1;HPM_P2
2024/04/11 00:01:14;;;;;;;;;;;;;;;29.84;24.54;99587.91;5526430;25;19928;-83
2024/04/11 00:03:40;;;;;;;;;;;;;;;29.86;24.88;99585.44;5519223;25;20376;-83
2024/04/11 00:06:06;;;;;;;;;;;;;;;29.77;24.64;99587.25;5537329;25;20457;-83
2024/04/11 00:08:32;;;;;;;;;;;;;;;29.78;24.46;99577.53;5544424;25;19927;-83
2024/04/11 00:10:58;;;;;;;;;;;;;;;29.77;24.55;99581.59;5532160;25;20352;-83
2024/04/11 00:13:24;;;;;;;;;;;;;;;29.72;24.79;99582.06;5536208;25;19930;-83
2024/04/11 00:15:53;;;;;;;;;;;;;;;29.78;24.31;99586.81;5525956;25;19927;-83
2024/04/11 00:18:21;;;;;;;;;;;;;;;29.80;24.65;99589.22;5520329;25;20027;-83
2024/04/11 00:20:47;;;;;;;;;;;;;;;29.78;24.57;99600.19;5520119;25;19931;-83
2024/04/11 00:23:13;;;;;;;;;;;;;;;29.71;24.82;99595.44;5534333;25;19934;-83
2024/04/11 00:25:40;;;;;;;;;;;;;;;29.78;24.63;99606.63;5508882;25;19926;-83
2024/04/11 00:28:06;;;;;;;;;;;;;;;29.97;24.37;99597.31;5525026;26;19931;-83
2024/04/11 00:30:32;;;;;;;;;;;;;;;30.04;24.23;99596.38;5506048;26;19935;-83
2024/04/11 00:32:59;;;;;;;;;;;;;;;30.09;24.23;99596.66;5528491;26;20435;-82
2024/04/11 00:35:25;;;;;;;;;;;;;;;30.13;24.40;99595.78;5509765;26;19943;-83
2024/04/11 00:37:51;;;;;;;;;;;;;;;30.10;24.01;99594.63;5523200;26;19928;-82
2024/04/11 00:40:18;;;;;;;;;;;;;;;30.14;24.50;99598.16;5522203;25;19934;-82
2024/04/11 00:42:44;;;;;;;;;;;;;;;30.51;23.85;99591.25;5533002;25;19941;-83
2024/04/11 00:45:10;;;;;;;;;;;;;;;30.68;23.74;99593.66;5560512;25;20038;-83
2024/04/11 00:47:40;;;;;;;;;;;;;;;30.54;23.67;99596.03;5527996;25;19933;-83
2024/04/11 00:50:07;;;;;;;;;;;;;;;30.34;24.01;99598.94;5525248;26;19953;-82
2024/04/11 00:52:35;;;;;;;;;;;;;;;30.36;24.09;99590.00;5495777;25;19992;-83
2024/04/11 00:55:02;;;;;;;;;;;;;;;30.24;23.97;99594.31;5535883;25;19928;-83
2024/04/11 00:57:28;;;;;;;;;;;;;;;30.18;23.97;99601.72;5545635;25;19996;-83
2024/04/11 00:59:54;;;;;;;;;;;;;;;30.14;24.18;99591.69;5534034;25;19931;-83
2024/04/11 01:02:20;;;;;;;;;;;;;;;30.08;24.17;99592.22;5535021;25;19955;-83
2024/04/11 01:04:46;;;;;;;;;;;;;;;30.11;24.29;99584.88;5499527;26;19934;-83
2024/04/11 01:07:14;;;;;;;;;;;;;;;30.15;23.98;99593.31;5495428;26;19936;-83
2024/04/11 01:09:44;;;;;;;;;;;;;;;30.22;23.92;99581.81;5480884;26;20268;-83
2024/04/11 01:12:14;;;;;;;;;;;;;;;30.34;24.09;99579.09;5491955;26;20288;-82
2024/04/11 01:14:41;;;;;;;;;;;;;;;30.34;23.81;99584.75;5492601;26;19928;-82
2024/04/11 01:17:07;;;;;;;;;;;;;;;30.48;23.81;99584.41;5508365;25;19927;-82
2024/04/11 01:19:33;;;;;;;;;;;;;;;30.66;23.79;99581.97;5488603;26;20359;-83
2024/04/11 01:22:00;;;;;;;;;;;;;;;30.78;23.74;99586.13;5483630;26;19928;-82
2024/04/11 01:24:27;;;;;;;;;;;;;;;30.87;23.62;99585.50;5494321;26;19931;-82
2024/04/11 01:26:54;;;;;;;;;;;;;;;30.82;23.80;99577.50;5481410;26;19927;-82
2024/04/11 01:29:20;;;;;;;;;;;;;;;30.71;24.46;99578.56;5487057;26;19928;-83
2024/04/11 01:31:46;;;;;;;;;;;;;;;30.60;24.72;99575.22;5491116;26;20389;-82
2024/04/11 01:34:12;;;;;;;;;;;;;;;30.03;24.85;99575.75;5496237;26;19960;-83
2024/04/11 01:36:38;;;;;;;;;;;;;;;29.60;25.39;99582.72;5485885;26;19936;-82
2024/04/11 01:39:09;;;;;;;;;;;;;;;29.57;25.43;99583.63;5482109;26;20382;-82
2024/04/11 01:41:38;;;;;;;;;;;;;;;29.93;24.96;99584.47;5494000;26;19935;-83
2024/04/11 01:44:05;;;;;;;;;;;;;;;30.23;24.22;99578.53;5510851;26;19934;-82
2024/04/11 01:46:31;;;;;;;;;;;;;;;30.36;24.41;99582.31;5499321;26;19935;-82
2024/04/11 01:48:59;;;;;;;;;;;;;;;30.49;24.09;99586.03;5515747;26;19943;-82
2024/04/11 01:51:26;;;;;;;;;;;;;;;30.66;24.20;99581.97;5498264;26;19934;-82
2024/04/11 01:53:53;;;;;;;;;;;;;;;30.65;24.23;99588.06;5521005;26;19927;-83
2024/04/11 01:56:20;;;;;;;;;;;;;;;30.45;24.32;99588.16;5500052;26;19927;-83
2024/04/11 01:58:46;;;;;;;;;;;;;;;30.41;24.07;99584.59;5501564;26;19936;-83
2024/04/11 02:01:13;;;;;;;;;;;;;;;30.56;23.92;99585.84;5488464;26;19935;-83
2024/04/11 02:03:39;;;;;;;;;;;;;;;30.43;23.95;99587.81;5515841;25;19935;-83
2024/04/11 02:06:07;;;;;;;;;;;;;;;30.00;24.71;99581.50;5538762;25;19995;-82
2024/04/11 02:08:33;;;;;;;;;;;;;;;30.16;24.32;99589.22;5525343;26;19963;-82
2024/04/11 02:11:00;;;;;;;;;;;;;;;30.46;23.85;99583.25;5542827;25;19994;-82
2024/04/11 02:13:26;;;;;;;;;;;;;;;30.57;23.80;99581.75;5518375;25;19938;-82
2024/04/11 02:15:54;;;;;;;;;;;;;;;30.67;23.72;99591.25;5517356;25;19936;-83
2024/04/11 02:18:20;;;;;;;;;;;;;;;30.66;23.40;99576.28;5527669;25;19928;-83
2024/04/11 02:20:47;;;;;;;;;;;;;;;30.64;23.55;99577.97;5537180;25;19927;-83
2024/04/11 02:23:14;;;;;;;;;;;;;;;30.71;23.47;99584.25;5538059;25;19936;-82
2024/04/11 02:25:40;;;;;;;;;;;;;;;30.82;23.53;99592.50;5523814;25;20549;-82
2024/04/11 02:28:06;;;;;;;;;;;;;;;30.88;23.38;99575.75;5542576;25;19942;-82
2024/04/11 02:30:32;;;;;;;;;;;;;;;30.94;23.48;99579.66;5538937;25;20268;-82
2024/04/11 02:32:58;;;;;;;;;;;;;;;30.96;23.53;99582.84;5531035;25;19928;-82
2024/04/11 02:35:24;;;;;;;;;;;;;;;30.92;24.05;99577.28;5554838;25;19995;-82
2024/04/11 02:37:51;;;;;;;;;;;;;;;30.92;23.94;99579.31;5523507;25;19995;-82
2024/04/11 02:40:17;;;;;;;;;;;;;;;30.93;23.97;99583.72;5543610;25;20319;-82
2024/04/11 02:42:44;;;;;;;;;;;;;;;30.92;23.77;99591.47;5548231;25;19943;-82
2024/04/11 02:45:14;;;;;;;;;;;;;;;30.74;23.93;99596.75;5546323;25;20355;-82
2024/04/11 02:47:41;;;;;;;;;;;;;;;30.38;24.60;99594.00;5520892;25;19948;-83
2024/04/11 02:50:09;;;;;;;;;;;;;;;30.52;24.37;99587.19;5527108;25;19941;-82
2024/04/11 02:52:40;;;;;;;;;;;;;;;30.65;24.06;99590.91;5525509;25;19942;-82
2024/04/11 02:55:08;;;;;;;;;;;;;;;30.75;24.07;99587.00;5529631;25;20355;-83
2024/04/11 02:57:37;;;;;;;;;;;;;;;30.82;23.29;99584.00;5562264;25;19946;-83
2024/04/11 03:00:04;;;;;;;;;;;;;;;30.78;23.37;99592.56;5542404;25;19934;-83
2024/04/11 03:02:34;;;;;;;;;;;;;;;30.84;23.56;99584.34;5532509;25;22360;-83
2024/04/11 03:05:00;;;;;;;;;;;;;;;30.88;23.91;99576.56;5523806;25;19946;-83
2024/04/11 03:07:27;;;;;;;;;;;;;;;30.73;24.23;99580.97;5515995;25;19936;-83
2024/04/11 03:09:56;;;;;;;;;;;;;;;30.39;24.74;99587.06;5530168;25;19943;-83
2024/04/11 03:12:22;;;;;;;;;;;;;;;29.97;24.97;99583.16;5520036;25;19931;-83
2024/04/11 03:14:49;;;;;;;;;;;;;;;29.65;25.39;99585.06;5523144;25;19935;-83
2024/04/11 03:17:15;;;;;;;;;;;;;;;29.75;25.41;99584.84;5527027;25;19935;-83
2024/04/11 03:19:41;;;;;;;;;;;;;;;29.95;25.01;99585.66;5534083;25;19994;-83
2024/04/11 03:22:07;;;;;;;;;;;;;;;29.98;24.79;99590.44;5520169;25;19934;-83
2024/04/11 03:24:33;;;;;;;;;;;;;;;30.24;24.46;99580.13;5518235;25;19963;-83
2024/04/11 03:27:02;;;;;;;;;;;;;;;30.33;24.49;99580.34;5514562;25;19935;-83
2024/04/11 03:29:29;;;;;;;;;;;;;;;30.34;24.25;99587.59;5536976;25;19927;-83
2024/04/11 03:31:55;;;;;;;;;;;;;;;29.89;24.96;99578.09;5533202;25;19945;-82
2024/04/11 03:34:22;;;;;;;;;;;;;;;29.61;25.40;99584.34;5529513;25;19935;-83
2024/04/11 03:36:49;;;;;;;;;;;;;;;29.78;25.21;99586.81;5525654;25;19927;-83
2024/04/11 03:39:15;;;;;;;;;;;;;;;29.88;24.90;99582.16;5553391;25;19938;-83
2024/04/11 03:41:52;;;;;;;;;;;;;;;29.70;25.06;99578.88;5521944;25;19943;-83
2024/04/11 03:44:18;;;;;;;;;;;;;;;29.91;24.80;99579.25;5495756;25;19994;-83
2024/04/11 03:46:44;;;;;;;;;;;;;;;29.92;24.71;99580.06;5530147;25;19935;-83
2024/04/11 03:49:10;;;;;;;;;;;;;;;30.17;24.44;99577.47;5546780;25;19956;-83
2024/04/11 03:51:41;;;;;;;;;;;;;;;30.40;24.26;99576.53;5523492;25;19928;-83
2024/04/11 03:54:09;;;;;;;;;;;;;;;30.42;24.43;99579.72;5484669;25;19934;-83
2024/04/11 03:56:35;;;;;;;;;;;;;;;30.56;23.94;99585.06;5531528;25;19939;-82
2024/04/11 03:59:03;;;;;;;;;;;;;;;30.57;23.98;99584.59;5523963;25;19935;-83
2024/04/11 04:01:30;;;;;;;;;;;;;;;30.52;24.59;99587.19;5536448;25;20271;-83
2024/04/11 04:03:57;;;;;;;;;;;;;;;30.42;24.93;99579.72;5539045;25;20403;-83
2024/04/11 04:06:23;;;;;;;;;;;;;;;30.25;24.77;99576.03;5522652;25;19937;-82
2024/04/11 04:08:50;;;;;;;;;;;;;;;30.43;24.37;99584.16;5531116;25;19935;-83
2024/04/11 04:11:16;;;;;;;;;;;;;;;30.27;24.65;99576.41;5499133;26;19955;-83
2024/04/11 04:13:43;;;;;;;;;;;;;;;30.04;24.80;99582.19;5522575;25;20045;-83
2024/04/11 04:16:14;;;;;;;;;;;;;;;29.90;25.33;99579.69;5514239;25;20371;-83
2024/04/11 04:18:41;;;;;;;;;;;;;;;29.87;25.11;99589.84;5520723;25;19928;-83
2024/04/11 04:21:07;;;;;;;;;;;;;;;29.57;25.41;99583.63;5529208;25;19947;-83
2024/04/11 04:23:34;;;;;;;;;;;;;;;29.83;25.41;99586.31;5519535;25;19962;-82
2024/04/11 04:26:07;;;;;;;;;;;;;;;29.84;25.03;99587.13;5531222;25;19939;-84
2024/04/11 04:28:40;;;;;;;;;;;;;;;30.03;24.69;99589.94;5529832;25;19940;-83
2024/04/11 04:31:12;;;;;;;;;;;;;;;30.32;24.43;99589.25;5494824;25;19933;-83
2024/04/11 04:33:39;;;;;;;;;;;;;;;30.54;24.15;99596.84;5517009;25;19927;-82
2024/04/11 04:36:16;;;;;;;;;;;;;;;30.52;24.29;99599.31;5518528;25;19960;-81
2024/04/11 04:38:44;;;;;;;;;;;;;;;30.52;24.57;99590.81;5482824;25;20255;-82
2024/04/11 04:41:11;;;;;;;;;;;;;;;30.63;24.24;99601.88;5536528;25;19935;-82
2024/04/11 04:43:38;;;;;;;;;;;;;;;30.51;24.52;99597.72;5530040;25;20457;-82
2024/04/11 04:46:05;;;;;;;;;;;;;;;30.27;24.99;99601.91;5516796;25;19935;-81
2024/04/11 04:48:32;;;;;;;;;;;;;;;30.09;24.88;99601.50;5510240;25;19928;-81
2024/04/11 04:51:01;;;;;;;;;;;;;;;30.16;25.14;99606.22;5495822;26;19928;-82
2024/04/11 04:53:29;;;;;;;;;;;;;;;30.20;25.33;99612.63;5517603;25;19979;-81
2024/04/11 04:55:56;;;;;;;;;;;;;;;30.24;25.23;99613.34;5515225;26;19939;-82
2024/04/11 04:58:22;;;;;;;;;;;;;;;30.37;25.41;99612.22;5511886;26;20268;-83
2024/04/11 05:00:48;;;;;;;;;;;;;;;30.33;25.37;99610.72;5503749;25;19942;-80
2024/04/11 05:03:14;;;;;;;;;;;;;;;30.50;25.05;99618.78;5504617;25;20034;-80
2024/04/11 05:05:43;;;;;;;;;;;;;;;30.73;24.89;99615.00;5511736;26;19956;-81
2024/04/11 05:08:13;;;;;;;;;;;;;;;30.95;24.52;99606.78;5518945;25;20292;-82
2024/04/11 05:10:43;;;;;;;;;;;;;;;30.61;24.79;99619.34;5537441;25;19927;-82
2024/04/11 05:13:12;;;;;;;;;;;;;;;30.38;25.13;99613.84;5531015;25;19935;-82
2024/04/11 05:15:38;;;;;;;;;;;;;;;30.24;25.38;99621.84;5526244;25;20359;-82
2024/04/11 05:18:05;;;;;;;;;;;;;;;30.20;25.79;99621.91;5530228;25;19927;-82
2024/04/11 05:20:33;;;;;;;;;;;;;;;30.62;25.02;99617.31;5491153;26;19928;-82
2024/04/11 05:22:59;;;;;;;;;;;;;;;30.91;24.93;99620.25;5503246;25;19935;-82
2024/04/11 05:25:30;;;;;;;;;;;;;;;30.86;25.02;99623.59;5509293;25;19943;-82
2024/04/11 05:27:57;;;;;;;;;;;;;;;30.40;25.33;99622.69;5529316;26;19938;-82
2024/04/11 05:30:23;;;;;;;;;;;;;;;30.32;25.55;99623.25;5528890;26;20349;-82
2024/04/11 05:32:50;;;;;;;;;;;;;;;30.69;24.84;99622.81;5526663;25;19927;-82
2024/04/11 05:35:19;;;;;;;;;;;;;;;30.97;24.12;99627.00;5532174;25;20014;-82
2024/04/11 05:37:45;;;;;;;;;;;;;;;31.08;24.29;99633.19;5566655;25;19971;-82
2024/04/11 05:40:15;;;;;;;;;;;;;;;31.25;24.07;99621.34;5549930;25;19935;-82
2024/04/11 05:42:45;;;;;;;;;;;;;;;31.41;23.59;99623.38;5531467;25;19931;-82
2024/04/11 05:45:11;;;;;;;;;;;;;;;31.51;24.13;99625.13;5528389;26;20404;-82
2024/04/11 05:47:37;;;;;;;;;;;;;;;31.67;23.66;99633.59;5528656;26;20285;-82
2024/04/11 05:50:04;;;;;;;;;;;;;;;31.78;23.58;99636.94;5528778;26;19963;-82
2024/04/11 05:52:31;;;;;;;;;;;;;;;31.65;23.69;99641.78;5528579;26;20344;-82
2024/04/11 05:54:58;;;;;;;;;;;;;;;31.62;23.69;99639.84;5528498;26;19939;-82
2024/04/11 05:57:27;;;;;;;;;;;;;;;31.48;24.04;99634.56;5516147;26;19935;-82
2024/04/11 05:59:55;;;;;;;;;;;;;;;31.53;24.08;99639.69;5505773;26;19927;-82
2024/04/11 06:02:21;;;;;;;;;;;;;;;31.72;23.43;99644.41;5528471;26;20278;-82
2024/04/11 06:04:47;;;;;;;;;;;;;;;31.88;23.93;99640.72;5528958;25;20350;-82
2024/04/11 06:07:16;;;;;;;;;;;;;;;32.03;23.83;99642.72;5553821;25;19958;-82
2024/04/11 06:09:43;;;;;;;;;;;;;;;32.19;22.78;99638.97;5565897;25;19927;-82
2024/04/11 06:12:11;;;;;;;;;;;;;;;31.84;23.47;99642.84;5565475;25;20366;-82
2024/04/11 06:14:37;;;;;;;;;;;;;;;31.78;23.03;99634.09;5560777;25;20367;-82
2024/04/11 06:17:03;;;;;;;;;;;;;;;31.70;23.80;99638.38;5548505;25;20252;-82
2024/04/11 06:19:29;;;;;;;;;;;;;;;31.48;23.31;99633.78;5528647;25;20288;-82
2024/04/11 06:21:57;;;;;;;;;;;;;;;31.39;23.82;99645.75;5555068;25;20326;-82
2024/04/11 06:24:23;;;;;;;;;;;;;;;31.64;23.96;99651.56;5548648;25;19927;-82
2024/04/11 06:26:50;;;;;;;;;;;;;;;31.78;22.80;99656.84;5518635;25;20290;-82
2024/04/11 06:29:22;;;;;;;;;;;;;;;30.96;24.00;99654.56;5562250;25;19935;-82
2024/04/11 06:31:48;;;;;;;;;;;;;;;29.01;25.83;99671.13;5519643;25;19931;-82
2024/04/11 06:34:14;;;;;;;;;;;;;;;27.49;27.58;99672.41;5510442;26;19956;-82
2024/04/11 06:36:41;;;;;;;;;;;;;;;27.09;27.83;99673.16;5527975;26;19934;-82
2024/04/11 06:39:13;;;;;;;;;;;;;;;27.29;28.01;99682.63;5517496;26;19935;-82
2024/04/11 06:41:39;;;;;;;;;;;;;;;28.06;26.93;99676.16;5527735;26;19955;-82
2024/04/11 06:44:08;;;;;;;;;;;;;;;28.90;25.72;99676.16;5527853;26;19927;-82
2024/04/11 06:46:34;;;;;;;;;;;;;;;28.91;26.35;99679.81;5551296;25;20370;-82
2024/04/11 06:49:02;;;;;;;;;;;;;;;26.85;28.53;99683.41;5527761;25;19935;-82
2024/04/11 06:51:30;;;;;;;;;;;;;;;26.16;29.43;99683.44;5527432;26;19936;-82
2024/04/11 06:53:57;;;;;;;;;;;;;;;24.24;33.26;99683.97;5527786;26;19935;-81
2024/04/11 06:56:24;;;;;;;;;;;;;;;24.94;31.52;99686.09;5527381;26;19934;-82
2024/04/11 06:58:51;;;;;;;;;;;;;;;23.31;34.05;99693.03;5529485;25;20302;-82
2024/04/11 07:01:17;;;;;;;;;;;;;;;24.00;33.38;99685.44;5531286;25;19968;-82
2024/04/11 07:03:43;;;;;;;;;;;;;;;26.31;30.03;99682.16;5565239;25;20258;-82
2024/04/11 07:06:16;;;;;;;;;;;;;;;26.97;29.33;99688.56;5516628;25;20004;-83
2024/04/11 07:08:43;;;;;;;;;;;;;;;25.48;31.09;99678.44;5517144;26;19927;-82
2024/04/11 07:13:47;;;;;;;;;;;;;;;26.19;29.96;99684.63;5527487;25;19927;-82
2024/04/11 07:16:16;;;;;;;;;;;;;;;25.00;31.12;99687.28;5527443;26;19995;-82
2024/04/11 07:18:48;;;;;;;;;;;;;;;26.06;30.65;99692.72;5527479;26;19956;-82
2024/04/11 07:21:17;;;;;;;;;;;;;;;25.31;30.88;99688.47;5521242;25;19988;-82
2024/04/11 07:23:44;;;;;;;;;;;;;;;26.84;28.42;99692.31;5522748;26;19931;-82
2024/04/11 07:26:15;;;;;;;;;;;;;;;26.68;28.76;99693.56;5526835;26;20306;-82
2024/04/11 07:28:45;;;;;;;;;;;;;;;25.18;30.37;99699.31;5527372;26;19931;-82
2024/04/11 07:31:12;;;;;;;;;;;;;;;25.14;30.73;99692.09;5527378;26;20256;-82
2024/04/11 07:33:38;;;;;;;;;;;;;;;25.82;29.31;99699.22;5526559;26;19949;-82
2024/04/11 07:36:07;;;;;;;;;;;;;;;25.49;30.75;99708.94;5527315;26;19928;-82
2024/04/11 07:38:34;;;;;;;;;;;;;;;24.26;32.87;99714.44;5526859;26;19939;-82
2024/04/11 07:41:16;;;;;;;;;;;;;;;23.88;32.61;99708.25;5526309;26;19935;-82
2024/04/11 07:43:52;;;;;;;;;;;;;;;23.52;33.32;99714.06;5527132;26;20257;-81
2024/04/11 07:46:19;;;;;;;;;;;;;;;24.21;32.14;99709.19;5526590;25;20320;-82
2024/04/11 07:48:48;;;;;;;;;;;;;;;25.40;30.84;99709.34;5527129;26;19939;-82
2024/04/11 07:51:15;;;;;;;;;;;;;;;26.72;28.98;99707.66;5527287;25;20255;-82
2024/04/11 07:53:46;;;;;;;;;;;;;;;27.34;28.49;99711.19;5526293;26;20363;-82
2024/04/11 07:56:19;;;;;;;;;;;;;;;26.58;28.53;99708.53;5517456;26;19936;-83
2024/04/11 07:58:49;;;;;;;;;;;;;;;25.12;31.51;99714.19;5501411;26;19927;-82
2024/04/11 08:01:16;;;;;;;;;;;;;;;25.16;30.65;99717.78;5511619;25;19943;-82
2024/04/11 08:03:45;;;;;;;;;;;;;;;26.31;28.56;99713.13;5511703;26;19927;-82
2024/04/11 08:06:11;;;;;;;;;;;;;;;28.82;26.20;99713.47;5526606;26;19935;-82
2024/04/11 08:08:37;;;;;;;;;;;;;;;28.43;25.75;99708.34;5526417;26;19927;-82
2024/04/11 08:11:06;;;;;;;;;;;;;;;27.32;27.99;99708.00;5526389;25;19999;-82
2024/04/11 08:13:33;;;;;;;;;;;;;;;25.60;31.16;99720.97;5525530;26;19943;-82
2024/04/11 08:15:59;;;;;;;;;;;;;;;25.41;30.69;99719.38;5526276;26;19949;-82
2024/04/11 08:18:28;;;;;;;;;;;;;;;24.02;33.23;99732.75;5514503;26;19953;-82
2024/04/11 08:20:57;;;;;;;;;;;;;;;24.82;31.87;99725.00;5512029;25;19939;-82
2024/04/11 08:23:24;;;;;;;;;;;;;;;24.38;31.86;99714.88;5525962;26;19935;-82
2024/04/11 08:25:51;;;;;;;;;;;;;;;24.71;32.27;99725.75;5526040;26;20008;-82
2024/04/11 08:28:18;;;;;;;;;;;;;;;25.58;30.56;99726.22;5526242;26;19932;-82
2024/04/11 08:30:45;;;;;;;;;;;;;;;25.69;30.28;99726.19;5522325;25;19936;-82
2024/04/11 08:33:11;;;;;;;;;;;;;;;25.76;29.68;99720.56;5541982;25;20359;-82
2024/04/11 08:35:37;;;;;;;;;;;;;;;25.96;29.41;99713.25;5551130;25;19995;-82
2024/04/11 08:38:06;;;;;;;;;;;;;;;28.31;27.15;99708.94;5560747;25;19927;-82
2024/04/11 08:40:34;;;;;;;;;;;;;;;27.62;27.60;99712.97;5525974;26;19935;-82
2024/04/11 08:43:01;;;;;;;;;;;;;;;29.06;25.59;99715.88;5526061;26;19927;-82
2024/04/11 08:45:30;;;;;;;;;;;;;;;30.92;24.60;99704.13;5526869;26;20047;-82
2024/04/11 08:47:57;;;;;;;;;;;;;;;31.85;23.26;99704.13;5528098;26;19931;-82
2024/04/11 08:50:23;;;;;;;;;;;;;;;29.11;25.39;99704.09;5531697;25;19938;-82
2024/04/11 08:52:51;;;;;;;;;;;;;;;28.04;26.63;99714.53;5544835;25;19928;-82
2024/04/11 08:55:17;;;;;;;;;;;;;;;28.98;26.27;99700.28;5543294;25;19938;-82
2024/04/11 08:57:43;;;;;;;;;;;;;;;27.62;27.88;99707.31;5529290;26;19938;-82
2024/04/11 09:00:13;;;;;;;;;;;;;;;28.60;27.07;99701.69;5529379;26;20356;-82
2024/04/11 09:02:41;;;;;;;;;;;;;;;27.58;27.79;99702.94;5528841;26;20316;-82
2024/04/11 09:05:10;;;;;;;;;;;;;;;28.08;27.23;99710.44;5527652;26;19939;-82
2024/04/11 09:07:37;;;;;;;;;;;;;;;28.81;26.66;99704.19;5496474;26;20266;-82
2024/04/11 09:10:05;;;;;;;;;;;;;;;29.16;26.41;99711.28;5529316;25;19933;-82
2024/04/11 09:12:31;;;;;;;;;;;;;;;29.81;24.52;99709.75;5529506;25;19938;-82
2024/04/11 09:14:57;;;;;;;;;;;;;;;30.39;24.13;99708.16;5529565;26;19935;-82
2024/04/11 09:17:24;;;;;;;;;;;;;;;31.93;22.42;99708.34;5529170;25;19938;-82
2024/04/11 09:20:00;;;;;;;;;;;;;;;31.29;22.87;99715.75;5529056;26;19935;-82
2024/04/11 09:22:28;;;;;;;;;;;;;;;31.61;23.66;99714.13;5527647;25;19927;-82
2024/04/11 09:24:54;;;;;;;;;;;;;;;32.15;22.47;99708.56;5529064;26;19927;-82
2024/04/11 09:27:20;;;;;;;;;;;;;;;31.51;22.88;99710.31;5528859;26;20318;-82
2024/04/11 09:29:46;;;;;;;;;;;;;;;30.23;22.77;99714.53;5544070;25;19934;-82
2024/04/11 09:32:15;;;;;;;;;;;;;;;28.29;25.29;99717.81;5528946;25;20371;-82
2024/04/11 09:34:42;;;;;;;;;;;;;;;29.06;24.49;99715.09;5528719;26;19979;-82
2024/04/11 09:37:14;;;;;;;;;;;;;;;29.71;24.13;99699.41;5528376;26;20259;-82
2024/04/11 09:39:45;;;;;;;;;;;;;;;30.90;24.22;99700.94;5523616;26;20271;-82
2024/04/11 09:42:18;;;;;;;;;;;;;;;32.24;21.15;99697.31;5528746;26;20375;-82
2024/04/11 09:44:48;;;;;;;;;;;;;;;29.26;23.99;99694.19;5529393;25;19934;-82
2024/04/11 09:47:18;;;;;;;;;;;;;;;27.79;25.01;99705.53;5535418;25;19927;-82
2024/04/11 09:49:53;;;;;;;;;;;;;;;26.29;25.66;99711.94;5547051;25;20367;-82
2024/04/11 09:52:26;;;;;;;;;;;;;;;27.05;27.12;99703.41;5528419;26;19960;-83
2024/04/11 09:54:52;;;;;;;;;;;;;;;28.30;25.34;99701.69;5493054;26;19936;-83
2024/04/11 09:57:21;;;;;;;;;;;;;;;29.40;23.66;99693.91;5505849;26;19939;-83
2024/04/11 09:59:48;;;;;;;;;;;;;;;28.82;24.43;99700.16;5528340;26;19934;-82
2024/04/11 10:02:16;;;;;;;;;;;;;;;30.24;23.52;99693.47;5528295;26;19939;-82
2024/04/11 10:04:45;;;;;;;;;;;;;;;30.53;23.32;99705.00;5528098;26;19927;-82
2024/04/11 10:07:15;;;;;;;;;;;;;;;31.72;21.55;99701.22;5528425;26;19954;-82
2024/04/11 10:09:54;;;;;;;;;;;;;;;27.74;25.55;99703.97;5528529;26;19927;-82
2024/04/11 10:12:20;;;;;;;;;;;;;;;26.56;27.60;99708.16;5517453;25;19939;-81
2024/04/11 10:14:49;;;;;;;;;;;;;;;26.53;27.20;99711.00;5502888;26;19935;-82
2024/04/11 10:17:15;;;;;;;;;;;;;;;28.89;24.55;99702.06;5528437;26;19960;-82
2024/04/11 10:19:43;;;;;;;;;;;;;;;30.48;22.33;99694.19;5528312;26;19995;-82
2024/04/11 10:22:15;;;;;;;;;;;;;;;32.01;22.73;99693.53;5527657;26;20399;-82
2024/04/11 10:24:44;;;;;;;;;;;;;;;32.42;22.69;99684.16;5528085;26;19928;-82
2024/04/11 10:27:11;;;;;;;;;;;;;;;32.56;21.14;99685.78;5528239;26;19992;-82
2024/04/11 10:29:39;;;;;;;;;;;;;;;33.15;21.71;99685.91;5512468;26;19935;-82
2024/04/11 10:32:06;;;;;;;;;;;;;;;32.51;21.19;99681.47;5505863;26;20367;-82
2024/04/11 10:34:37;;;;;;;;;;;;;;;32.69;22.28;99683.75;5527315;26;19934;-82
2024/04/11 10:37:03;;;;;;;;;;;;;;;32.45;22.08;99683.25;5521916;26;20440;-82
2024/04/11 10:39:35;;;;;;;;;;;;;;;29.69;24.02;99687.69;5491159;26;19940;-82
2024/04/11 10:42:02;;;;;;;;;;;;;;;29.08;24.59;99690.81;5522326;25;19947;-82
2024/04/11 10:44:28;;;;;;;;;;;;;;;30.42;23.23;99688.25;5527729;26;19927;-82
2024/04/11 10:46:57;;;;;;;;;;;;;;;32.76;22.25;99680.69;5507474;26;19934;-82
2024/04/11 10:49:28;;;;;;;;;;;;;;;34.40;20.25;99683.03;5513395;25;19994;-82
2024/04/11 10:51:58;;;;;;;;;;;;;;;34.14;18.79;99679.53;5514310;26;19928;-82
2024/04/11 10:54:26;;;;;;;;;;;;;;;34.23;19.92;99678.78;5490790;26;19927;-82
2024/04/11 10:56:54;;;;;;;;;;;;;;;34.23;19.99;99679.59;5491149;26;19936;-82
2024/04/11 10:59:26;;;;;;;;;;;;;;;33.85;19.77;99674.06;5510501;26;19928;-82
2024/04/11 11:02:00;;;;;;;;;;;;;;;33.39;21.77;99678.56;5527167;25;19927;-82
2024/04/11 11:04:29;;;;;;;;;;;;;;;34.26;20.11;99677.88;5499922;25;19940;-82
2024/04/11 11:06:59;;;;;;;;;;;;;;;34.29;20.87;99671.22;5520322;25;19939;-82
2024/04/11 11:09:29;;;;;;;;;;;;;;;35.13;20.78;99669.88;5526245;26;19927;-82
2024/04/11 11:11:55;;;;;;;;;;;;;;;34.85;18.86;99676.72;5527653;25;19939;-82
2024/04/11 11:14:24;;;;;;;;;;;;;;;34.99;19.36;99673.28;5527937;26;19927;-82
2024/04/11 11:16:50;;;;;;;;;;;;;;;35.26;19.30;99671.34;5527305;26;19927;-82
2024/04/11 11:19:17;;;;;;;;;;;;;;;35.80;19.57;99675.53;5527208;26;19927;-82
2024/04/11 11:21:50;;;;;;;;;;;;;;;36.23;18.69;99668.63;5525917;26;19939;-82
2024/04/11 11:24:23;;;;;;;;;;;;;;;36.30;18.67;99665.44;5527741;25;19996;-82
2024/04/11 11:26:56;;;;;;;;;;;;;;;35.43;18.85;99674.66;5527216;26;19938;-83
2024/04/11 11:29:26;;;;;;;;;;;;;;;34.62;18.43;99669.50;5522580;25;19927;-83
2024/04/11 11:32:01;;;;;;;;;;;;;;;34.35;18.60;99664.47;5526766;26;20262;-83
2024/04/11 11:34:29;;;;;;;;;;;;;;;34.58;19.25;99661.13;5527058;25;19934;-83
2024/04/11 11:37:03;;;;;;;;;;;;;;;35.04;18.53;99653.50;5524897;25;19932;-82
2024/04/11 11:39:33;;;;;;;;;;;;;;;34.71;19.81;99666.69;5527612;25;19943;-82
2024/04/11 11:42:08;;;;;;;;;;;;;;;35.23;19.35;99655.13;5526424;26;19934;-82
2024/04/11 11:47:33;;;;;;;;;;;;;;;35.54;19.13;99665.69;5489693;26;20420;-82
2024/04/11 11:50:09;;;;;;;;;;;;;;;33.91;19.50;99663.66;5489826;26;19928;-83
2024/04/11 11:52:36;;;;;;;;;;;;;;;30.02;24.14;99666.81;5490318;26;19936;-83
2024/04/11 11:55:06;;;;;;;;;;;;;;;30.72;22.30;99665.25;5490706;26;19927;-83
2024/04/11 11:57:41;;;;;;;;;;;;;;;30.61;22.16;99658.25;5513530;25;19955;-83
2024/04/11 12:00:32;;;;;;;;;;;;;;;32.50;20.54;99654.28;5556494;25;19939;-83
2024/04/11 12:03:00;;;;;;;;;;;;;;;34.05;20.89;99648.91;5562450;25;20478;-82
2024/04/11 12:05:27;;;;;;;;;;;;;;;34.48;20.31;99650.88;5563847;25;19994;-82
2024/04/11 12:08:06;;;;;;;;;;;;;;;34.34;19.56;99645.75;5538641;25;19935;-82
2024/04/11 12:13:41;;;;;;;;;;;;;;;33.65;19.86;99644.31;5495228;25;19996;-83
2024/04/11 12:16:08;;;;;;;;;;;;;;;33.52;19.71;99641.47;5526565;26;19935;-83
2024/04/11 12:18:34;;;;;;;;;;;;;;;34.03;19.77;99642.88;5525842;26;20266;-83
2024/04/11 12:21:02;;;;;;;;;;;;;;;33.26;20.66;99634.28;5529537;26;19927;-83
2024/04/11 12:23:28;;;;;;;;;;;;;;;33.22;20.78;99639.31;5530176;26;20327;-83
2024/04/11 12:25:58;;;;;;;;;;;;;;;32.55;20.92;99635.88;5529912;26;19968;-83
2024/04/11 12:28:25;;;;;;;;;;;;;;;33.64;19.80;99625.63;5528288;25;19928;-83
2024/04/11 12:31:00;;;;;;;;;;;;;;;34.67;20.06;99628.94;5530361;25;19928;-82
2024/04/11 12:33:27;;;;;;;;;;;;;;;35.13;18.43;99629.88;5557333;25;19934;-82
2024/04/11 12:35:56;;;;;;;;;;;;;;;32.96;20.38;99627.16;5558340;25;19934;-82
2024/04/11 12:38:32;;;;;;;;;;;;;;;33.74;19.97;99618.75;5528626;26;19995;-82
2024/04/11 12:40:58;;;;;;;;;;;;;;;34.58;20.63;99626.88;5530007;25;19934;-83
2024/04/11 12:43:28;;;;;;;;;;;;;;;35.14;19.65;99614.34;5523505;25;19939;-82
2024/04/11 12:45:55;;;;;;;;;;;;;;;34.67;20.04;99614.69;5509423;26;19936;-82
2024/04/11 12:48:22;;;;;;;;;;;;;;;34.93;19.87;99616.03;5514068;25;19947;-82
2024/04/11 12:50:55;;;;;;;;;;;;;;;35.36;20.56;99620.69;5492165;26;20252;-82
2024/04/11 12:53:22;;;;;;;;;;;;;;;36.08;18.50;99610.53;5493088;26;19932;-82
2024/04/11 12:55:52;;;;;;;;;;;;;;;35.42;18.62;99611.03;5492956;26;19935;-83
2024/04/11 12:58:24;;;;;;;;;;;;;;;35.77;18.31;99613.59;5502278;25;19928;-83
2024/04/11 13:01:03;;;;;;;;;;;;;;;35.33;18.18;99608.19;5520605;26;19935;-83